Time;durP1;ratioP1;P1;durP2;ratioP2;P2;SDS_P1;SDS_P2;PMS_P1;PMS_P2;Temp;Humidity;BMP_temperature;BMP_pressure;BME280_temperature;BME280_humidity;BME280_pressure;Samples;Min_cycle;Max_cycle;Signal;HPM_P1;HPM_P2
2021/09/18 00:01:04;;;;;;;2.10;1.00;;;15.70;87.90;;;;;;5097814;28;20543;-73
2021/09/18 00:03:32;;;;;;;1.20;0.90;;;15.70;87.80;;;;;;5116360;28;20031;-73
2021/09/18 00:05:57;;;;;;;0.60;0.60;;;15.70;87.80;;;;;;5116429;28;20055;-73
2021/09/18 00:08:23;;;;;;;0.70;0.70;;;15.60;87.80;;;;;;5116125;28;20436;-73
2021/09/18 00:10:49;;;;;;;1.02;0.80;;;15.60;87.80;;;;;;5116305;28;20028;-72
2021/09/18 00:13:14;;;;;;;0.70;0.63;;;15.60;87.80;;;;;;5116221;28;20465;-74
2021/09/18 00:15:40;;;;;;;1.05;0.95;;;15.60;87.90;;;;;;5115829;28;20030;-73
2021/09/18 00:18:06;;;;;;;0.98;0.88;;;15.60;87.80;;;;;;5116186;28;20019;-75
2021/09/18 00:20:31;;;;;;;0.93;0.73;;;15.60;87.80;;;;;;5116111;28;20437;-74
2021/09/18 00:22:58;;;;;;;0.88;0.88;;;15.50;88.40;;;;;;5116060;28;20023;-74
2021/09/18 00:25:24;;;;;;;0.60;0.50;;;15.60;87.90;;;;;;5116040;28;20024;-73
2021/09/18 00:27:50;;;;;;;0.50;0.50;;;15.50;87.90;;;;;;5097719;28;20030;-73
2021/09/18 00:30:15;;;;;;;0.80;0.80;;;15.50;87.90;;;;;;5115438;28;20043;-75
2021/09/18 00:32:41;;;;;;;0.95;0.90;;;15.50;88.00;;;;;;5116036;28;20020;-73
2021/09/18 00:35:07;;;;;;;0.63;0.60;;;15.40;88.00;;;;;;5115844;28;20020;-74
2021/09/18 00:37:33;;;;;;;0.68;0.68;;;15.40;88.20;;;;;;5115876;28;20034;-72
2021/09/18 00:39:58;;;;;;;1.40;1.20;;;15.30;88.20;;;;;;5115469;28;20020;-72
2021/09/18 00:42:24;;;;;;;1.55;0.93;;;15.30;88.40;;;;;;5115776;28;20031;-72
2021/09/18 00:44:53;;;;;;;1.00;1.00;;;15.30;88.40;;;;;;5115166;28;20024;-73
2021/09/18 00:47:18;;;;;;;0.80;0.80;;;15.20;88.40;;;;;;5115650;28;20082;-73
2021/09/18 00:49:44;;;;;;;0.77;0.65;;;15.20;88.50;;;;;;5115099;28;20488;-73
2021/09/18 00:52:10;;;;;;;2.28;1.27;;;15.20;88.40;;;;;;5096829;28;20059;-74
2021/09/18 00:54:36;;;;;;;1.10;1.00;;;15.20;88.40;;;;;;5115461;28;20023;-73
2021/09/18 00:57:02;;;;;;;0.95;0.77;;;15.20;88.40;;;;;;5115318;28;20085;-73
2021/09/18 00:59:27;;;;;;;0.98;0.73;;;15.20;88.40;;;;;;5114820;28;20019;-73
2021/09/18 01:01:53;;;;;;;0.70;0.70;;;15.20;88.40;;;;;;5115314;28;20402;-73
2021/09/18 01:04:19;;;;;;;0.93;0.88;;;15.10;88.50;;;;;;5115306;28;20024;-73
2021/09/18 01:06:45;;;;;;;0.65;0.65;;;15.10;88.60;;;;;;5115271;28;20020;-74
2021/09/18 01:09:11;;;;;;;1.80;1.25;;;15.00;88.60;;;;;;5115043;28;20047;-75
2021/09/18 01:11:36;;;;;;;1.17;1.08;;;15.00;88.70;;;;;;5096853;28;20407;-74
2021/09/18 01:14:02;;;;;;;1.05;0.90;;;14.90;88.70;;;;;;5114549;28;20461;-74
2021/09/18 01:16:27;;;;;;;0.80;0.80;;;14.90;88.90;;;;;;5114979;28;20023;-74
2021/09/18 01:18:53;;;;;;;1.15;0.90;;;14.80;89.00;;;;;;5114882;28;20028;-73
2021/09/18 01:21:19;;;;;;;0.93;0.93;;;14.80;89.00;;;;;;5114949;28;20047;-74
2021/09/18 01:23:45;;;;;;;1.35;1.08;;;14.70;89.10;;;;;;5114879;28;20019;-73
2021/09/18 01:26:11;;;;;;;1.75;1.20;;;14.70;89.20;;;;;;5114811;28;20106;-74
2021/09/18 01:28:41;;;;;;;1.23;1.00;;;14.70;89.40;;;;;;5114444;28;20124;-73
2021/09/18 01:31:08;;;;;;;1.02;0.93;;;14.60;89.40;;;;;;5114837;28;20068;-75
2021/09/18 01:33:34;;;;;;;1.38;1.10;;;14.60;89.40;;;;;;5096778;28;20038;-74
2021/09/18 01:36:00;;;;;;;1.20;1.10;;;14.60;89.50;;;;;;5114563;28;20027;-73
2021/09/18 01:38:25;;;;;;;1.05;0.95;;;14.60;89.40;;;;;;5114542;28;20036;-73
2021/09/18 01:40:51;;;;;;;2.60;1.63;;;14.60;89.40;;;;;;5114730;28;20015;-74
2021/09/18 01:43:17;;;;;;;1.02;0.90;;;14.70;89.50;;;;;;5113915;28;20049;-74
2021/09/18 01:45:43;;;;;;;0.85;0.85;;;14.70;89.40;;;;;;5096284;28;20019;-73
2021/09/18 01:48:11;;;;;;;0.88;0.85;;;14.60;89.40;;;;;;5114677;28;20019;-74
2021/09/18 01:50:51;;;;;;;1.23;1.13;;;14.60;89.50;;;;;;5114493;28;20103;-74
2021/09/18 01:53:19;;;;;;;2.03;1.00;;;14.60;89.60;;;;;;5096097;28;20472;-74
2021/09/18 01:55:47;;;;;;;1.65;1.25;;;14.50;89.60;;;;;;5113775;28;20031;-74
2021/09/18 01:58:13;;;;;;;1.13;1.02;;;14.50;89.70;;;;;;5114265;28;20020;-73
2021/09/18 02:00:41;;;;;;;1.45;1.13;;;14.50;89.70;;;;;;5114281;28;20495;-73
2021/09/18 02:03:09;;;;;;;1.33;1.23;;;14.50;89.70;;;;;;5113133;28;20030;-73
2021/09/18 02:05:35;;;;;;;1.05;0.90;;;14.50;89.70;;;;;;5095856;28;20090;-73
2021/09/18 02:08:00;;;;;;;1.10;1.00;;;14.50;89.70;;;;;;5095877;28;20541;-73
2021/09/18 02:10:28;;;;;;;1.52;1.27;;;14.60;89.80;;;;;;5113465;28;20051;-74
2021/09/18 02:12:55;;;;;;;1.25;1.15;;;14.50;89.70;;;;;;5095631;28;20024;-73
2021/09/18 02:15:22;;;;;;;0.95;0.90;;;14.60;89.80;;;;;;5114061;28;20433;-74
2021/09/18 02:17:48;;;;;;;1.67;1.10;;;14.60;89.80;;;;;;5095751;28;20081;-73
2021/09/18 02:20:16;;;;;;;1.33;1.20;;;14.50;89.80;;;;;;5113988;28;20036;-73
2021/09/18 02:22:43;;;;;;;2.40;1.50;;;14.60;89.80;;;;;;5113953;28;20027;-72
2021/09/18 02:25:09;;;;;;;1.50;1.30;;;14.50;89.80;;;;;;5113333;28;20030;-73
2021/09/18 02:27:35;;;;;;;1.65;1.33;;;14.50;89.90;;;;;;5113684;28;20034;-74
2021/09/18 02:30:03;;;;;;;1.80;1.38;;;14.50;90.00;;;;;;5113897;28;20020;-73
2021/09/18 02:32:28;;;;;;;1.58;1.23;;;14.40;89.90;;;;;;5113827;28;20051;-72
2021/09/18 02:34:54;;;;;;;2.10;1.30;;;14.50;90.00;;;;;;5113765;28;20051;-73
2021/09/18 02:37:20;;;;;;;1.80;1.27;;;14.50;90.00;;;;;;5113592;28;20024;-73
2021/09/18 02:39:46;;;;;;;2.10;1.60;;;14.50;90.00;;;;;;5113348;28;20511;-73
2021/09/18 02:42:12;;;;;;;2.20;1.30;;;14.50;90.00;;;;;;5113743;28;20028;-73
2021/09/18 02:44:37;;;;;;;2.85;1.55;;;14.40;90.00;;;;;;5113540;28;20095;-75
2021/09/18 02:47:03;;;;;;;2.28;1.85;;;14.40;90.00;;;;;;5113585;28;20464;-73
2021/09/18 02:49:28;;;;;;;2.58;1.60;;;14.50;90.10;;;;;;5095375;28;20491;-73
2021/09/18 02:51:54;;;;;;;2.28;1.50;;;14.50;90.10;;;;;;5113655;28;20028;-73
2021/09/18 02:54:19;;;;;;;2.55;1.90;;;14.40;90.00;;;;;;5112990;28;20476;-74
2021/09/18 02:56:45;;;;;;;3.10;1.85;;;14.40;90.00;;;;;;5113386;28;20032;-72
2021/09/18 02:59:11;;;;;;;2.88;2.10;;;14.40;90.00;;;;;;5113549;28;20020;-72
2021/09/18 03:01:37;;;;;;;1.55;1.45;;;14.40;90.10;;;;;;5113490;28;20023;-72
2021/09/18 03:04:03;;;;;;;2.08;1.65;;;14.50;90.10;;;;;;5095059;28;20035;-73
2021/09/18 03:06:28;;;;;;;2.80;1.80;;;14.50;90.10;;;;;;5095219;28;20051;-72
2021/09/18 03:08:55;;;;;;;2.05;1.60;;;14.50;90.10;;;;;;5112820;28;20067;-72
2021/09/18 03:11:22;;;;;;;3.25;2.15;;;14.50;90.10;;;;;;5095213;28;20053;-74
2021/09/18 03:13:48;;;;;;;3.50;2.20;;;14.50;90.10;;;;;;5114789;28;20384;-74
2021/09/18 03:16:13;;;;;;;2.72;1.80;;;14.50;90.20;;;;;;5117174;28;20500;-74
2021/09/18 03:18:39;;;;;;;3.47;2.30;;;14.50;90.20;;;;;;5117416;28;20018;-73
2021/09/18 03:21:04;;;;;;;2.97;2.05;;;14.50;90.20;;;;;;5117618;28;20439;-73
2021/09/18 03:23:30;;;;;;;2.47;1.90;;;14.50;90.20;;;;;;5116821;28;20024;-72
2021/09/18 03:25:55;;;;;;;2.63;1.80;;;14.50;90.20;;;;;;5117072;28;20043;-73
2021/09/18 03:28:21;;;;;;;3.53;2.33;;;14.50;90.10;;;;;;5117216;28;20102;-74
2021/09/18 03:30:46;;;;;;;3.85;2.20;;;14.50;90.10;;;;;;5117093;28;20020;-74
2021/09/18 03:33:12;;;;;;;4.10;2.58;;;14.50;90.10;;;;;;5117028;28;20042;-73
2021/09/18 03:35:39;;;;;;;3.40;1.92;;;14.50;90.20;;;;;;5098614;28;20132;-72
2021/09/18 03:38:07;;;;;;;2.78;2.10;;;14.50;90.20;;;;;;5116369;28;20019;-72
2021/09/18 03:40:32;;;;;;;4.35;2.88;;;14.60;90.20;;;;;;5116927;28;20024;-73
2021/09/18 03:42:57;;;;;;;3.80;2.45;;;14.60;90.20;;;;;;5117110;28;20068;-74
2021/09/18 03:45:23;;;;;;;2.67;2.13;;;14.60;90.20;;;;;;5098297;28;20031;-74
2021/09/18 03:47:48;;;;;;;2.75;1.83;;;14.60;90.20;;;;;;5098598;28;20103;-73
2021/09/18 03:50:14;;;;;;;3.22;2.45;;;14.70;90.20;;;;;;5098400;28;20123;-73
2021/09/18 03:52:39;;;;;;;3.40;2.28;;;14.70;90.20;;;;;;5116308;28;20015;-74
2021/09/18 03:55:06;;;;;;;3.10;2.08;;;14.70;90.20;;;;;;5116623;28;20469;-74
2021/09/18 03:57:32;;;;;;;3.75;2.33;;;14.70;90.20;;;;;;5098322;28;20020;-74
2021/09/18 03:59:57;;;;;;;4.70;2.70;;;14.60;90.20;;;;;;5116366;28;20012;-74
2021/09/18 04:02:22;;;;;;;3.83;2.45;;;14.60;90.30;;;;;;5098258;28;20032;-74
2021/09/18 04:04:48;;;;;;;3.58;2.22;;;14.50;90.30;;;;;;5116422;28;20103;-75
2021/09/18 04:07:14;;;;;;;3.40;2.13;;;14.50;90.30;;;;;;5097641;28;20488;-74
2021/09/18 04:09:39;;;;;;;2.60;1.98;;;14.50;90.30;;;;;;5115925;28;20113;-75
2021/09/18 04:12:05;;;;;;;2.47;1.80;;;14.40;90.30;;;;;;5116445;28;20550;-76
2021/09/18 04:14:31;;;;;;;2.50;1.70;;;14.50;90.30;;;;;;5116141;28;20028;-74
2021/09/18 04:16:56;;;;;;;3.15;2.28;;;14.50;90.30;;;;;;5097902;28;20035;-74
2021/09/18 04:19:22;;;;;;;3.75;2.22;;;14.60;90.20;;;;;;5097930;28;20392;-73
2021/09/18 04:21:47;;;;;;;2.90;2.38;;;14.60;90.20;;;;;;5115595;28;20031;-73
2021/09/18 04:24:13;;;;;;;3.20;2.05;;;14.70;90.20;;;;;;5115987;28;20047;-73
2021/09/18 04:26:39;;;;;;;2.85;1.88;;;14.70;90.20;;;;;;5115121;28;20461;-74
2021/09/18 04:29:05;;;;;;;1.98;1.70;;;14.70;90.20;;;;;;5116080;28;20080;-73
2021/09/18 04:31:30;;;;;;;3.05;1.65;;;14.60;90.20;;;;;;5115883;28;20030;-73
2021/09/18 04:33:56;;;;;;;2.50;1.80;;;14.70;90.20;;;;;;5097590;28;20020;-73
2021/09/18 04:36:22;;;;;;;2.00;1.48;;;14.70;90.10;;;;;;5097184;28;20032;-75
2021/09/18 04:38:47;;;;;;;2.13;1.63;;;14.60;90.10;;;;;;5097541;28;20023;-74
2021/09/18 04:41:13;;;;;;;2.20;1.60;;;14.60;90.10;;;;;;5115805;28;20034;-74
2021/09/18 04:43:38;;;;;;;2.80;1.95;;;14.50;90.10;;;;;;5115551;28;20016;-74
2021/09/18 04:46:04;;;;;;;2.38;1.63;;;14.50;90.20;;;;;;5115602;28;20036;-74
2021/09/18 04:48:30;;;;;;;2.50;1.70;;;14.50;90.20;;;;;;5115708;28;20027;-74
2021/09/18 04:50:55;;;;;;;3.00;1.60;;;14.50;90.20;;;;;;5115163;28;20038;-74
2021/09/18 04:53:21;;;;;;;2.50;1.55;;;14.50;90.10;;;;;;5115531;28;20041;-75
2021/09/18 04:55:47;;;;;;;3.08;1.80;;;14.50;90.10;;;;;;5115164;28;20068;-73
2021/09/18 04:58:13;;;;;;;2.00;1.40;;;14.50;90.10;;;;;;5097189;28;20031;-78
2021/09/18 05:00:38;;;;;;;1.80;1.70;;;14.40;90.10;;;;;;5115397;28;20020;-77
2021/09/18 05:03:04;;;;;;;1.88;1.60;;;14.40;90.10;;;;;;5097327;28;20028;-77
2021/09/18 05:05:30;;;;;;;3.10;1.88;;;14.30;90.20;;;;;;5096548;28;20046;-77
2021/09/18 05:07:55;;;;;;;2.65;1.70;;;14.30;90.20;;;;;;5115379;28;20434;-78
2021/09/18 05:10:21;;;;;;;3.30;2.10;;;14.20;90.20;;;;;;5115014;28;20066;-79
2021/09/18 05:12:46;;;;;;;1.92;1.83;;;14.30;90.30;;;;;;5115150;28;20045;-79
2021/09/18 05:15:12;;;;;;;3.22;1.80;;;14.30;90.30;;;;;;5114985;28;20449;-79
2021/09/18 05:17:38;;;;;;;2.45;1.80;;;14.30;90.30;;;;;;5096679;28;20038;-79
2021/09/18 05:20:07;;;;;;;2.42;1.70;;;14.30;90.30;;;;;;5114559;28;20031;-79
2021/09/18 05:22:33;;;;;;;2.15;1.45;;;14.30;90.20;;;;;;5115039;28;20042;-78
2021/09/18 05:24:58;;;;;;;1.52;1.33;;;14.30;90.20;;;;;;5114935;28;20468;-79
2021/09/18 05:27:24;;;;;;;1.52;1.42;;;14.40;90.20;;;;;;5114898;28;20099;-78
2021/09/18 05:29:50;;;;;;;2.45;1.40;;;14.30;90.20;;;;;;5114850;28;20043;-76
2021/09/18 05:32:15;;;;;;;3.15;2.03;;;14.30;90.20;;;;;;5096449;28;20020;-77
2021/09/18 05:34:41;;;;;;;1.80;1.35;;;14.30;90.20;;;;;;5114291;28;20023;-79
2021/09/18 05:37:07;;;;;;;1.40;1.30;;;14.30;90.20;;;;;;5114255;28;20040;-77
2021/09/18 05:39:32;;;;;;;1.23;1.10;;;14.30;90.20;;;;;;5114828;28;20468;-77
2021/09/18 05:41:58;;;;;;;2.08;1.38;;;14.20;90.20;;;;;;5114686;28;20027;-78
2021/09/18 05:44:24;;;;;;;1.48;1.25;;;14.30;90.20;;;;;;5114500;28;20027;-78
2021/09/18 05:46:50;;;;;;;1.45;1.10;;;14.30;90.20;;;;;;5114594;28;20024;-77
2021/09/18 05:49:17;;;;;;;2.05;1.30;;;14.30;90.20;;;;;;5113950;28;20023;-79
2021/09/18 05:51:43;;;;;;;1.27;1.02;;;14.40;90.10;;;;;;5114465;28;20516;-79
2021/09/18 05:54:09;;;;;;;2.03;1.70;;;14.40;90.00;;;;;;5114265;28;20054;-78
2021/09/18 05:56:37;;;;;;;1.70;1.30;;;14.50;90.00;;;;;;5113912;28;20118;-75
2021/09/18 05:59:03;;;;;;;1.30;1.20;;;14.50;89.90;;;;;;5114235;28;20028;-78
2021/09/18 06:01:30;;;;;;;1.67;1.00;;;14.50;89.80;;;;;;5095937;28;20016;-77
2021/09/18 06:03:55;;;;;;;2.22;1.35;;;14.60;89.80;;;;;;5113797;28;20044;-76
2021/09/18 06:06:21;;;;;;;1.35;1.02;;;14.60;89.70;;;;;;5114509;28;20376;-77
2021/09/18 06:08:46;;;;;;;0.98;0.90;;;14.60;89.70;;;;;;5115557;28;20039;-75
2021/09/18 06:11:12;;;;;;;2.03;1.38;;;14.60;89.60;;;;;;5114031;28;20124;-76
2021/09/18 06:13:38;;;;;;;1.58;1.20;;;14.60;89.60;;;;;;5114013;28;20100;-77
2021/09/18 06:16:03;;;;;;;1.50;1.02;;;14.60;89.60;;;;;;5113716;28;20100;-76
2021/09/18 06:18:29;;;;;;;1.90;1.30;;;14.60;89.60;;;;;;5113501;28;20476;-76
2021/09/18 06:20:56;;;;;;;1.58;1.17;;;14.60;89.50;;;;;;5113994;28;20087;-77
2021/09/18 06:23:22;;;;;;;0.98;0.95;;;14.60;89.50;;;;;;5113783;28;20024;-77
2021/09/18 06:25:47;;;;;;;1.55;1.38;;;14.70;89.50;;;;;;5113759;28;20094;-76
2021/09/18 06:28:13;;;;;;;1.27;1.10;;;14.70;89.50;;;;;;5113917;28;20035;-77
2021/09/18 06:30:38;;;;;;;1.25;1.15;;;14.70;89.50;;;;;;5114032;28;20024;-76
2021/09/18 06:33:07;;;;;;;1.65;1.27;;;14.70;89.50;;;;;;5113247;28;20476;-75
2021/09/18 06:35:32;;;;;;;0.95;0.70;;;14.70;89.40;;;;;;5113623;28;20024;-77
2021/09/18 06:37:58;;;;;;;0.90;0.90;;;14.80;89.40;;;;;;5113934;28;20027;-77
2021/09/18 06:40:25;;;;;;;1.02;0.93;;;14.80;89.40;;;;;;5113761;28;20023;-77
2021/09/18 06:42:51;;;;;;;1.55;0.93;;;14.80;89.30;;;;;;5113700;28;20436;-76
2021/09/18 06:45:16;;;;;;;0.93;0.90;;;14.90;89.30;;;;;;5113538;28;20062;-78
2021/09/18 06:47:42;;;;;;;1.58;1.48;;;14.90;89.20;;;;;;5095079;28;20110;-77
2021/09/18 06:50:08;;;;;;;1.52;1.42;;;15.00;89.20;;;;;;5117600;28;20477;-78
2021/09/18 06:52:37;;;;;;;1.80;1.50;;;15.00;89.20;;;;;;5117876;28;20020;-76
2021/09/18 06:55:03;;;;;;;1.30;1.10;;;15.00;89.20;;;;;;5117734;28;20024;-77
2021/09/18 06:57:29;;;;;;;1.00;0.90;;;15.10;89.20;;;;;;5099127;28;20677;-76
2021/09/18 06:59:55;;;;;;;0.95;0.90;;;15.20;89.10;;;;;;5117136;28;20016;-75
2021/09/18 07:02:20;;;;;;;1.38;0.90;;;15.20;89.00;;;;;;5099355;28;20468;-76
2021/09/18 07:04:45;;;;;;;0.93;0.80;;;15.30;89.00;;;;;;5117656;28;20027;-76
2021/09/18 07:07:11;;;;;;;2.35;1.48;;;15.30;88.90;;;;;;5117525;28;20098;-77
2021/09/18 07:09:36;;;;;;;1.10;1.00;;;15.40;88.80;;;;;;5098695;28;20047;-77
2021/09/18 07:12:03;;;;;;;2.72;1.50;;;15.50;88.80;;;;;;5117575;28;20024;-76
2021/09/18 07:14:29;;;;;;;1.67;1.08;;;15.50;88.80;;;;;;5116795;28;20024;-77
2021/09/18 07:16:54;;;;;;;1.00;1.00;;;15.60;88.80;;;;;;5117497;28;20041;-77
2021/09/18 07:19:20;;;;;;;2.20;1.40;;;15.70;89.00;;;;;;5098870;28;20022;-75
2021/09/18 07:21:45;;;;;;;1.20;0.95;;;15.70;88.70;;;;;;5117151;28;20098;-77
2021/09/18 07:24:10;;;;;;;1.80;1.20;;;15.70;88.70;;;;;;5116968;28;20401;-77
2021/09/18 07:26:37;;;;;;;1.42;1.25;;;15.80;88.80;;;;;;5117191;28;20023;-76
2021/09/18 07:29:04;;;;;;;1.85;1.55;;;15.70;88.80;;;;;;5116717;28;20095;-80
2021/09/18 07:31:30;;;;;;;1.00;1.00;;;15.70;88.90;;;;;;5098161;28;20051;-78
2021/09/18 07:33:55;;;;;;;1.15;1.05;;;15.80;89.00;;;;;;5116927;28;20479;-77
2021/09/18 07:36:21;;;;;;;1.88;1.42;;;15.80;88.80;;;;;;5116756;28;20549;-77
2021/09/18 07:38:47;;;;;;;1.77;1.50;;;15.80;88.90;;;;;;5098750;28;20027;-77
2021/09/18 07:41:13;;;;;;;1.15;1.05;;;15.80;88.80;;;;;;5116940;28;20024;-77
2021/09/18 07:43:39;;;;;;;1.85;1.40;;;15.90;88.90;;;;;;5116233;28;20172;-78
2021/09/18 07:46:07;;;;;;;0.90;0.90;;;16.00;89.00;;;;;;5116784;28;20039;-76
2021/09/18 07:48:32;;;;;;;1.25;1.15;;;16.10;88.70;;;;;;5116892;28;20095;-76
2021/09/18 07:50:58;;;;;;;1.13;1.02;;;16.20;89.30;;;;;;5116666;28;20447;-74
2021/09/18 07:53:24;;;;;;;0.82;0.70;;;16.30;88.60;;;;;;5116405;28;20100;-75
2021/09/18 07:55:50;;;;;;;1.55;1.45;;;16.40;88.50;;;;;;5116488;28;20045;-74
2021/09/18 07:58:16;;;;;;;0.93;0.90;;;16.40;88.50;;;;;;5097817;28;20024;-75
2021/09/18 08:00:46;;;;;;;1.55;1.13;;;16.60;88.50;;;;;;5115137;28;20035;-75
2021/09/18 08:03:13;;;;;;;1.17;1.08;;;16.60;88.30;;;;;;5116486;28;20020;-75
2021/09/18 08:05:38;;;;;;;1.40;1.05;;;16.70;88.30;;;;;;5098322;28;20022;-76
2021/09/18 08:08:04;;;;;;;0.88;0.85;;;16.80;88.20;;;;;;5098189;28;20023;-77
2021/09/18 08:10:30;;;;;;;1.73;1.45;;;16.90;88.30;;;;;;5098048;28;20552;-76
2021/09/18 08:12:56;;;;;;;1.10;1.00;;;16.80;88.30;;;;;;5115847;28;20076;-76
2021/09/18 08:15:23;;;;;;;2.10;1.25;;;16.90;88.50;;;;;;5116126;28;20020;-76
2021/09/18 08:17:49;;;;;;;1.60;1.50;;;17.00;88.50;;;;;;5097822;28;19939;-75
2021/09/18 08:20:16;;;;;;;1.20;1.00;;;17.00;88.40;;;;;;5116332;28;20027;-76
2021/09/18 08:22:43;;;;;;;1.63;1.02;;;17.00;88.30;;;;;;5097800;28;20099;-73
2021/09/18 08:25:09;;;;;;;0.95;0.85;;;16.90;88.60;;;;;;5116019;28;20524;-76
2021/09/18 08:27:35;;;;;;;1.90;1.52;;;16.90;88.80;;;;;;5097162;28;20028;-74
2021/09/18 08:30:01;;;;;;;1.15;1.05;;;16.90;88.80;;;;;;5115874;28;20120;-73
2021/09/18 08:32:27;;;;;;;1.33;1.23;;;16.90;88.60;;;;;;5115899;28;20488;-77
2021/09/18 08:34:53;;;;;;;1.25;1.08;;;16.90;88.80;;;;;;5115875;28;20019;-76
2021/09/18 08:37:18;;;;;;;0.95;0.95;;;16.90;89.00;;;;;;5097421;28;20043;-76
2021/09/18 08:39:44;;;;;;;1.60;1.20;;;16.90;88.90;;;;;;5097454;28;20023;-77
2021/09/18 08:42:09;;;;;;;0.60;0.55;;;17.00;88.90;;;;;;5115417;28;20031;-77
2021/09/18 08:44:35;;;;;;;1.75;1.27;;;17.10;88.90;;;;;;5115624;28;20051;-79
2021/09/18 08:47:02;;;;;;;1.75;1.23;;;17.30;88.70;;;;;;5115570;28;20061;-78
2021/09/18 08:49:29;;;;;;;1.35;1.00;;;17.40;88.60;;;;;;5097396;28;20020;-78
2021/09/18 08:51:55;;;;;;;1.10;1.00;;;17.50;88.50;;;;;;5097225;28;20019;-75
2021/09/18 08:54:20;;;;;;;0.82;0.82;;;17.60;88.40;;;;;;5115422;28;20068;-76
2021/09/18 08:56:46;;;;;;;1.10;1.00;;;17.70;88.30;;;;;;5115101;28;20386;-76
2021/09/18 08:59:11;;;;;;;1.38;1.00;;;17.80;88.20;;;;;;5097227;28;20464;-75
2021/09/18 09:01:37;;;;;;;1.30;1.10;;;18.00;88.20;;;;;;5097135;28;20472;-76
2021/09/18 09:04:07;;;;;;;0.85;0.85;;;18.10;88.20;;;;;;5097069;28;20357;-76
2021/09/18 09:06:41;;;;;;;1.55;1.15;;;18.10;88.10;;;;;;5115375;28;20019;-75
2021/09/18 09:09:07;;;;;;;1.35;1.10;;;18.20;88.10;;;;;;5115040;28;20090;-76
2021/09/18 09:11:32;;;;;;;2.05;1.50;;;18.30;88.10;;;;;;5114315;28;20380;-77
2021/09/18 09:14:01;;;;;;;1.52;1.42;;;18.40;88.10;;;;;;5115052;28;20080;-76
2021/09/18 09:16:29;;;;;;;1.60;1.23;;;18.50;88.20;;;;;;5115100;28;20071;-77
2021/09/18 09:18:54;;;;;;;1.58;1.23;;;18.50;88.10;;;;;;5114903;28;20028;-77
2021/09/18 09:21:29;;;;;;;1.70;1.30;;;18.60;88.10;;;;;;5114913;28;20023;-77
2021/09/18 09:24:12;;;;;;;1.50;1.00;;;18.70;88.10;;;;;;5114822;28;20031;-76
2021/09/18 09:27:02;;;;;;;1.83;1.20;;;18.80;88.00;;;;;;5114378;28;20034;-77
2021/09/18 09:29:41;;;;;;;1.33;1.17;;;18.90;88.00;;;;;;5096531;28;20433;-77
2021/09/18 09:32:35;;;;;;;1.20;1.10;;;18.90;88.00;;;;;;5096430;28;20020;-77
2021/09/18 09:35:08;;;;;;;1.20;1.10;;;19.00;88.10;;;;;;5114774;28;20024;-79
2021/09/18 09:37:33;;;;;;;1.10;0.93;;;19.10;88.10;;;;;;5114435;28;20112;-78
2021/09/18 09:40:02;;;;;;;1.73;1.30;;;19.20;88.00;;;;;;5095871;28;20456;-77
2021/09/18 09:42:31;;;;;;;1.40;1.30;;;19.30;87.90;;;;;;5114497;28;20031;-79
2021/09/18 09:45:13;;;;;;;1.63;1.33;;;19.40;87.80;;;;;;5114459;28;20039;-79
2021/09/18 09:47:39;;;;;;;1.92;1.60;;;19.50;87.80;;;;;;5114468;28;20027;-79
2021/09/18 09:50:08;;;;;;;2.15;1.60;;;19.50;87.90;;;;;;5096020;28;20380;-79
2021/09/18 09:52:36;;;;;;;2.42;1.60;;;19.60;87.90;;;;;;5095979;28;20035;-77
2021/09/18 09:55:14;;;;;;;2.85;2.20;;;19.60;87.90;;;;;;5095350;28;20047;-79
2021/09/18 09:57:42;;;;;;;3.20;2.03;;;19.70;87.90;;;;;;5114512;28;20031;-81
2021/09/18 10:00:13;;;;;;;2.63;2.20;;;19.70;87.80;;;;;;5095823;28;20016;-75
2021/09/18 10:02:40;;;;;;;4.60;2.60;;;19.70;87.90;;;;;;5113932;28;20058;-77
2021/09/18 10:05:11;;;;;;;3.33;2.50;;;19.80;87.90;;;;;;5113950;28;20020;-77
2021/09/18 10:07:37;;;;;;;3.03;2.00;;;19.80;87.70;;;;;;5114150;28;20102;-76
2021/09/18 10:10:08;;;;;;;2.97;2.10;;;19.90;87.90;;;;;;5113578;28;20114;-76
2021/09/18 10:12:38;;;;;;;2.30;2.00;;;19.90;87.90;;;;;;5095727;28;20362;-77
2021/09/18 10:15:06;;;;;;;3.60;2.55;;;19.90;87.80;;;;;;5113789;28;20008;-76
2021/09/18 10:17:34;;;;;;;4.07;2.42;;;20.10;87.70;;;;;;5095649;28;20031;-77
2021/09/18 10:23:13;;;;;;;4.00;2.53;;;20.10;87.70;;;;;;5114021;28;20016;-76
2021/09/18 10:23:15;;;;;;;4.07;3.17;;;20.10;87.50;;;;;;5112403;28;20411;-78
2021/09/18 10:25:45;;;;;;;3.33;2.55;;;20.20;87.50;;;;;;5113680;28;20023;-76
2021/09/18 10:28:14;;;;;;;4.10;2.60;;;20.20;87.60;;;;;;5113739;28;20049;-78
2021/09/18 10:31:10;;;;;;;3.40;2.83;;;20.30;87.50;;;;;;5113692;28;20026;-78
2021/09/18 10:33:52;;;;;;;4.28;3.08;;;20.40;87.40;;;;;;5113832;28;20380;-78
2021/09/18 10:36:42;;;;;;;3.22;2.35;;;20.40;87.40;;;;;;5113664;28;20204;-77
2021/09/18 10:39:11;;;;;;;5.18;2.83;;;20.40;87.30;;;;;;5113263;28;20016;-78
2021/09/18 10:41:44;;;;;;;;;;;20.50;87.30;;;;;;5095828;28;20028;-77
2021/09/18 10:44:12;;;;;;;2.72;1.95;;;20.50;87.30;;;;;;5095149;28;20302;-77
2021/09/18 10:46:47;;;;;;;3.80;1.88;;;20.50;87.20;;;;;;5095567;28;20046;-78
2021/09/18 10:49:48;;;;;;;3.30;2.38;;;20.50;87.00;;;;;;5113435;28;20062;-77
2021/09/18 10:52:17;;;;;;;5.07;2.92;;;20.50;87.10;;;;;;5113260;28;20036;-76
2021/09/18 10:55:01;;;;;;;3.63;2.40;;;20.50;87.20;;;;;;5113471;28;20077;-77
2021/09/18 10:57:42;;;;;;;4.03;2.40;;;20.50;87.10;;;;;;5113789;28;20028;-76
2021/09/18 11:00:07;;;;;;;4.78;2.65;;;20.50;87.40;;;;;;5113562;28;20099;-76
2021/09/18 11:02:33;;;;;;;3.90;2.75;;;20.50;87.40;;;;;;5113515;28;20161;-77
2021/09/18 11:05:08;;;;;;;3.35;2.10;;;20.50;87.30;;;;;;5113367;28;20024;-76
2021/09/18 11:07:40;;;;;;;3.67;2.45;;;20.50;87.30;;;;;;5112955;28;20103;-77
2021/09/18 11:10:09;;;;;;;3.13;2.20;;;20.60;87.10;;;;;;5113445;28;20056;-77
2021/09/18 11:12:35;;;;;;;;;;;20.70;87.00;;;;;;5113866;28;20039;-77
2021/09/18 11:15:12;;;;;;;3.42;2.22;;;20.70;87.00;;;;;;5113208;28;19903;-77
2021/09/18 11:17:43;;;;;;;3.67;2.40;;;20.70;86.90;;;;;;5113313;28;20031;-78
2021/09/18 11:20:14;;;;;;;4.63;2.65;;;20.80;86.80;;;;;;5113207;28;20028;-77
2021/09/18 11:22:39;;;;;;;4.72;3.38;;;20.90;86.80;;;;;;5112771;28;20387;-78
2021/09/18 11:25:43;;;;;;;3.95;3.00;;;21.00;86.60;;;;;;5113334;28;20016;-78
2021/09/18 11:28:12;;;;;;;4.93;3.47;;;21.10;86.40;;;;;;5113194;28;20108;-77
2021/09/18 11:30:45;;;;;;;4.43;2.97;;;21.10;86.40;;;;;;5113008;28;20019;-76
2021/09/18 11:33:12;;;;;;;4.45;2.85;;;21.10;86.40;;;;;;5113367;28;20119;-78
2021/09/18 11:35:39;;;;;;;4.28;2.80;;;21.20;86.30;;;;;;5115237;28;20052;-77
2021/09/18 11:38:07;;;;;;;5.75;3.80;;;21.30;86.00;;;;;;5116956;28;20031;-77
2021/09/18 11:40:36;;;;;;;5.18;3.70;;;21.40;85.90;;;;;;5116921;28;20012;-77
2021/09/18 11:43:02;;;;;;;3.55;2.55;;;21.50;85.90;;;;;;5116779;28;20031;-77
2021/09/18 11:45:29;;;;;;;4.15;2.83;;;21.60;85.80;;;;;;5116848;28;20015;-77
2021/09/18 11:47:58;;;;;;;3.88;2.33;;;21.60;85.80;;;;;;5116848;28;20069;-78
2021/09/18 11:50:29;;;;;;;;;;;21.60;85.80;;;;;;5116568;28;20035;-78
2021/09/18 11:52:58;;;;;;;4.40;3.05;;;21.60;86.00;;;;;;5116607;28;19904;-77
2021/09/18 11:55:38;;;;;;;4.03;2.47;;;21.70;85.90;;;;;;5116485;28;20016;-77
2021/09/18 11:58:25;;;;;;;4.40;3.00;;;21.90;85.80;;;;;;5098316;28;20034;-77
2021/09/18 12:00:52;;;;;;;4.10;3.00;;;22.00;85.40;;;;;;5116688;28;20098;-76
2021/09/18 12:03:21;;;;;;;4.47;2.78;;;21.90;85.20;;;;;;5116311;28;20072;-76
2021/09/18 12:05:54;;;;;;;4.72;3.08;;;21.80;85.50;;;;;;5097757;28;20063;-75
2021/09/18 12:08:22;;;;;;;4.72;3.30;;;21.80;85.70;;;;;;5116561;28;20049;-77
2021/09/18 12:10:49;;;;;;;5.00;2.83;;;21.80;85.70;;;;;;5116195;28;20039;-76
2021/09/18 12:13:20;;;;;;;4.15;2.75;;;21.80;85.80;;;;;;5116337;28;20030;-77
2021/09/18 12:15:47;;;;;;;3.97;2.30;;;21.80;85.70;;;;;;5116089;28;20095;-77
2021/09/18 12:18:33;;;;;;;3.58;2.50;;;21.90;85.60;;;;;;5116169;28;20027;-77
2021/09/18 12:21:05;;;;;;;3.42;2.45;;;22.00;85.40;;;;;;5097498;28;20020;-77
2021/09/18 12:23:33;;;;;;;2.15;1.60;;;22.00;85.40;;;;;;5116008;28;20024;-76
2021/09/18 12:26:01;;;;;;;2.97;1.93;;;22.10;85.30;;;;;;5115972;28;20016;-77
2021/09/18 12:28:28;;;;;;;2.63;1.98;;;22.20;85.10;;;;;;5116048;28;20024;-79
2021/09/18 12:30:55;;;;;;;3.80;2.75;;;22.30;84.90;;;;;;5116027;28;20141;-77
2021/09/18 12:33:33;;;;;;;3.97;2.80;;;22.40;84.70;;;;;;5115909;28;20039;-78
2021/09/18 12:36:13;;;;;;;2.57;1.77;;;22.40;84.60;;;;;;5097434;28;20023;-77
2021/09/18 12:38:40;;;;;;;3.72;2.10;;;22.50;84.70;;;;;;5115862;28;20016;-78
2021/09/18 12:41:09;;;;;;;2.83;2.25;;;22.50;84.60;;;;;;5115750;28;20028;-78
2021/09/18 12:43:35;;;;;;;2.95;2.33;;;22.60;84.60;;;;;;5115845;28;20024;-79
2021/09/18 12:46:11;;;;;;;4.03;2.65;;;22.60;84.40;;;;;;5114708;28;20024;-77
2021/09/18 12:48:39;;;;;;;4.00;2.58;;;22.50;84.20;;;;;;5115220;28;20023;-77
2021/09/18 12:51:17;;;;;;;4.55;3.00;;;22.30;84.60;;;;;;5115626;28;20020;-77